Time;durP1;ratioP1;P1;durP2;ratioP2;P2;SDS_P1;SDS_P2;PMS_P1;PMS_P2;Temp;Humidity;BMP_temperature;BMP_pressure;BME280_temperature;BME280_humidity;BME280_pressure;Samples;Min_cycle;Max_cycle;Signal;HPM_P1;HPM_P2
2022/08/13 00:01:33;;;;;;;4.38;2.58;;;24.80;52.30;;;;;;5059749;28;20500;-93
2022/08/13 00:04:08;;;;;;;4.07;2.80;;;24.80;52.60;;;;;;5044830;28;20031;-92
2022/08/13 00:10:25;;;;;;;4.03;3.00;;;24.70;52.90;;;;;;5077668;28;20047;-91
2022/08/13 00:13:17;;;;;;;5.22;3.15;;;24.70;53.40;;;;;;5060162;28;20021;-92
2022/08/13 00:16:02;;;;;;;;;;;;;;;;;;;;;
2022/08/13 00:18:29;;;;;;;7.50;3.88;;;24.60;53.50;;;;;;5061957;28;20032;-92
2022/08/13 00:21:07;;;;;;;6.15;3.50;;;24.50;53.40;;;;;;5059517;28;20029;-91
2022/08/13 00:23:53;;;;;;;5.63;3.30;;;24.40;53.40;;;;;;5059569;28;20025;-91
2022/08/13 00:26:24;;;;;;;5.20;3.60;;;24.40;53.70;;;;;;5045740;28;20033;-91
2022/08/13 00:29:16;;;;;;;4.82;2.75;;;24.40;54.00;;;;;;5060031;28;20032;-92
2022/08/13 00:31:49;;;;;;;4.60;2.92;;;24.40;54.00;;;;;;5060083;28;20020;-92
2022/08/13 00:34:20;;;;;;;4.32;2.85;;;24.30;54.10;;;;;;5064300;28;20059;-95
2022/08/13 00:36:51;;;;;;;2.92;2.30;;;24.30;54.30;;;;;;5071291;28;20070;-93
2022/08/13 00:39:37;;;;;;;7.78;2.33;;;24.30;54.60;;;;;;5055614;28;20064;-93
2022/08/13 00:42:08;;;;;;;3.75;2.10;;;24.30;54.60;;;;;;5054106;28;20144;-93
2022/08/13 00:44:38;;;;;;;2.85;2.20;;;24.20;54.50;;;;;;5047729;28;20036;-93
2022/08/13 00:49:51;;;;;;;3.05;2.20;;;24.10;54.50;;;;;;5064163;28;20136;-87
2022/08/13 00:52:49;;;;;;;3.67;2.10;;;24.10;54.60;;;;;;5058922;28;20064;-87
2022/08/13 00:55:22;;;;;;;4.32;2.20;;;24.10;54.70;;;;;;5054583;28;20424;-87
2022/08/13 00:57:51;;;;;;;4.78;2.10;;;24.00;54.70;;;;;;5059838;28;20035;-87
2022/08/13 01:00:26;;;;;;;3.13;2.20;;;24.00;54.80;;;;;;5059283;28;20034;-87
2022/08/13 01:02:58;;;;;;;2.70;2.08;;;24.00;54.80;;;;;;5059626;28;20033;-88
2022/08/13 01:05:46;;;;;;;2.53;2.05;;;24.00;54.80;;;;;;5043864;28;20044;-87
2022/08/13 01:15:22;;;;;;;;;;;;;;;;;;;;;
2022/08/13 01:18:05;;;;;;;3.85;1.83;;;23.80;55.10;;;;;;5038614;28;20048;-88
2022/08/13 01:20:50;;;;;;;3.30;1.63;;;23.80;55.20;;;;;;5022467;28;20046;-87
2022/08/13 01:30:06;;;;;;;6.32;1.92;;;23.70;55.30;;;;;;5011993;28;20037;-87
2022/08/13 01:32:37;;;;;;;4.80;2.28;;;23.70;55.40;;;;;;5058146;28;20070;-87
2022/08/13 01:35:06;;;;;;;2.47;1.98;;;23.70;55.30;;;;;;5058661;28;20381;-87
2022/08/13 01:37:43;;;;;;;3.90;1.98;;;23.60;55.40;;;;;;5057871;28;20051;-88
2022/08/13 01:40:20;;;;;;;;;;;;;;;;;;;;;
2022/08/13 01:42:48;;;;;;;3.85;1.92;;;23.50;55.40;;;;;;5076043;28;20125;-88
2022/08/13 01:45:23;;;;;;;2.47;1.80;;;23.50;55.70;;;;;;5057967;28;20021;-88
2022/08/13 01:50:57;;;;;;;;;;;;;;;;;;;;;
2022/08/13 01:53:31;;;;;;;3.88;1.60;;;23.40;56.00;;;;;;5059394;28;20031;-88
2022/08/13 01:56:00;;;;;;;4.18;1.85;;;23.40;56.00;;;;;;5041413;28;20028;-87
2022/08/13 02:01:19;;;;;;;3.15;1.75;;;23.30;56.30;;;;;;5075837;28;20036;-87
2022/08/13 02:03:49;;;;;;;3.55;1.80;;;23.30;56.30;;;;;;5058094;28;20478;-87
2022/08/13 02:06:24;;;;;;;1.80;1.67;;;23.20;56.30;;;;;;5057875;28;20040;-88
2022/08/13 02:08:55;;;;;;;3.33;1.83;;;23.20;56.50;;;;;;5057715;28;20021;-86
2022/08/13 02:11:24;;;;;;;4.38;1.80;;;23.10;56.50;;;;;;5057862;28;20081;-88
2022/08/13 02:13:52;;;;;;;2.25;1.80;;;23.10;56.60;;;;;;5057721;28;20021;-87
2022/08/13 02:16:22;;;;;;;1.50;1.40;;;23.10;56.70;;;;;;5056587;28;20025;-88
2022/08/13 02:18:53;;;;;;;4.13;2.10;;;23.10;56.60;;;;;;5056799;28;20040;-88
2022/08/13 02:21:30;;;;;;;1.70;1.60;;;23.10;56.50;;;;;;5041897;28;20071;-89
2022/08/13 02:23:58;;;;;;;4.07;1.75;;;23.00;56.60;;;;;;5057704;28;20485;-87
2022/08/13 02:26:32;;;;;;;2.88;1.85;;;23.00;56.70;;;;;;5057760;28;20028;-87
2022/08/13 02:29:06;;;;;;;5.82;2.10;;;23.00;56.70;;;;;;5057182;28;20407;-86
2022/08/13 02:31:35;;;;;;;3.88;1.90;;;23.10;56.70;;;;;;5057555;28;20469;-88
2022/08/13 02:34:03;;;;;;;2.00;1.73;;;23.00;56.60;;;;;;5056687;28;20056;-88
2022/08/13 02:36:40;;;;;;;3.83;1.90;;;23.00;56.70;;;;;;5057785;28;20462;-89
2022/08/13 02:39:15;;;;;;;2.40;1.90;;;23.00;56.70;;;;;;5041180;28;20048;-87
2022/08/13 02:41:49;;;;;;;2.15;1.60;;;23.00;56.80;;;;;;5056993;28;20025;-88
2022/08/13 02:44:20;;;;;;;3.38;1.75;;;23.00;56.70;;;;;;5036756;28;20033;-88
2022/08/13 02:46:51;;;;;;;3.92;1.90;;;23.00;56.80;;;;;;5020643;28;20029;-88
2022/08/13 02:49:23;;;;;;;3.80;1.40;;;22.90;56.90;;;;;;5036996;28;20106;-87
2022/08/13 02:51:56;;;;;;;2.17;1.70;;;22.90;57.60;;;;;;5036796;28;20021;-88
2022/08/13 02:54:28;;;;;;;2.75;1.83;;;22.90;57.00;;;;;;5036608;28;20033;-88
2022/08/13 02:57:01;;;;;;;2.78;1.73;;;22.90;57.00;;;;;;5020572;28;20044;-88
2022/08/13 02:59:27;;;;;;;2.67;1.77;;;22.90;57.10;;;;;;5036449;28;20064;-88
2022/08/13 03:01:55;;;;;;;2.45;1.42;;;22.90;57.10;;;;;;5036840;28;20025;-88
2022/08/13 03:04:24;;;;;;;1.83;1.42;;;22.90;57.20;;;;;;5027363;28;20030;-87
2022/08/13 03:06:56;;;;;;;3.60;1.90;;;22.90;57.10;;;;;;5036329;28;20378;-89
2022/08/13 03:09:27;;;;;;;2.38;1.40;;;22.80;57.10;;;;;;5036721;28;20108;-87
2022/08/13 03:12:01;;;;;;;4.28;1.50;;;22.80;57.10;;;;;;5037266;28;20052;-88
2022/08/13 03:14:35;;;;;;;1.75;1.50;;;22.80;57.20;;;;;;5037670;28;20029;-88
2022/08/13 03:17:09;;;;;;;3.20;1.42;;;22.70;57.20;;;;;;5039003;28;20052;-87
2022/08/13 03:19:37;;;;;;;2.25;1.88;;;22.70;57.30;;;;;;5054330;28;20072;-88
2022/08/13 03:22:06;;;;;;;2.88;1.50;;;22.60;57.30;;;;;;5059237;28;20009;-88
2022/08/13 03:24:35;;;;;;;3.05;1.23;;;22.60;57.40;;;;;;5060651;28;20032;-88
2022/08/13 03:27:11;;;;;;;2.00;1.60;;;22.50;57.50;;;;;;5044570;28;20009;-88
2022/08/13 03:29:41;;;;;;;2.30;1.52;;;22.50;57.60;;;;;;5063657;28;20029;-88
2022/08/13 03:38:26;;;;;;;3.20;1.70;;;22.40;57.70;;;;;;5059094;28;20024;-89
2022/08/13 03:41:08;;;;;;;2.15;1.58;;;22.40;57.70;;;;;;5024479;28;20103;-88
2022/08/13 03:43:34;;;;;;;3.95;1.40;;;22.40;57.70;;;;;;5021786;28;20145;-89
2022/08/13 03:46:07;;;;;;;3.35;1.70;;;22.40;57.80;;;;;;5057032;28;20071;-89
2022/08/13 03:48:34;;;;;;;2.58;1.50;;;22.40;57.80;;;;;;5056042;28;20044;-89
2022/08/13 03:51:10;;;;;;;2.20;1.50;;;22.40;57.90;;;;;;5056922;28;20037;-89
2022/08/13 03:54:03;;;;;;;2.92;1.42;;;22.30;57.80;;;;;;5056744;28;20120;-88
2022/08/13 03:56:39;;;;;;;1.48;1.33;;;22.30;58.20;;;;;;5057421;28;20025;-89
2022/08/13 03:59:05;;;;;;;3.50;1.55;;;22.20;58.20;;;;;;5044182;28;20041;-88
2022/08/13 04:01:31;;;;;;;3.75;1.50;;;22.20;58.30;;;;;;5059916;28;20031;-89
2022/08/13 04:03:57;;;;;;;1.52;1.35;;;22.30;58.20;;;;;;5059715;28;20021;-88
2022/08/13 04:06:24;;;;;;;3.78;1.65;;;22.20;58.10;;;;;;5060169;28;20013;-89
2022/08/13 04:08:53;;;;;;;2.08;1.40;;;22.20;58.20;;;;;;5060205;28;20032;-90
2022/08/13 04:11:25;;;;;;;3.17;1.60;;;22.30;58.30;;;;;;5060242;28;20021;-89
2022/08/13 04:14:08;;;;;;;4.57;1.55;;;22.30;58.20;;;;;;5059174;28;20488;-90
2022/08/13 04:16:39;;;;;;;3.13;1.40;;;22.30;58.30;;;;;;5060088;28;20493;-88
2022/08/13 04:19:09;;;;;;;2.13;1.42;;;22.30;58.30;;;;;;5059869;28;20478;-89
2022/08/13 04:21:46;;;;;;;1.40;1.30;;;22.30;58.30;;;;;;5059013;28;20049;-87
2022/08/13 04:24:22;;;;;;;;;;;;;;;;;;;;;
2022/08/13 04:26:48;;;;;;;2.42;1.50;;;22.20;58.40;;;;;;5077264;28;20024;-86
2022/08/13 04:29:14;;;;;;;1.95;1.48;;;22.30;58.50;;;;;;5059045;28;20128;-88
2022/08/13 04:32:00;;;;;;;2.15;1.33;;;22.20;58.60;;;;;;5059288;28;20021;-88
2022/08/13 04:34:30;;;;;;;2.92;1.65;;;22.20;58.80;;;;;;5058336;28;20033;-88
2022/08/13 04:37:04;;;;;;;1.35;1.25;;;22.20;58.70;;;;;;5042761;28;20441;-87
2022/08/13 04:39:32;;;;;;;2.83;1.17;;;22.10;58.70;;;;;;5058307;28;20029;-89
2022/08/13 04:42:00;;;;;;;2.72;1.50;;;22.10;58.80;;;;;;5058578;28;20052;-87
2022/08/13 04:44:40;;;;;;;1.70;1.30;;;22.00;58.80;;;;;;5059017;28;20053;-88
2022/08/13 04:47:11;;;;;;;1.13;1.00;;;21.90;58.90;;;;;;5058950;28;20039;-88
2022/08/13 04:49:39;;;;;;;3.75;1.38;;;21.90;59.00;;;;;;5042487;28;20081;-87
2022/08/13 04:57:18;;;;;;;3.17;1.50;;;21.80;59.10;;;;;;5006517;23;20059;-88
2022/08/13 04:59:52;;;;;;;2.65;1.90;;;21.80;59.30;;;;;;4944866;28;20049;-88
2022/08/13 05:02:20;;;;;;;5.43;2.00;;;21.80;59.30;;;;;;4962263;28;20035;-89
2022/08/13 05:04:47;;;;;;;3.38;1.95;;;21.80;59.30;;;;;;4962679;28;20038;-88
2022/08/13 05:07:16;;;;;;;2.60;2.05;;;21.80;59.40;;;;;;4980974;28;20034;-89
2022/08/13 05:09:49;;;;;;;3.92;1.95;;;21.70;59.40;;;;;;4983425;28;20012;-89
2022/08/13 05:12:15;;;;;;;3.35;2.05;;;21.80;59.50;;;;;;4967980;28;20015;-89
2022/08/13 05:14:46;;;;;;;4.72;2.72;;;21.70;59.40;;;;;;4983924;28;20011;-88
2022/08/13 05:17:16;;;;;;;2.88;2.35;;;21.80;59.50;;;;;;4982536;28;20094;-89
2022/08/13 05:19:45;;;;;;;;;;;21.70;59.50;;;;;;4971471;28;20550;-89
2022/08/13 05:22:14;;;;;;;3.53;2.10;;;21.70;59.50;;;;;;4980038;28;19906;-87
2022/08/13 05:24:45;;;;;;;4.18;2.38;;;21.80;59.60;;;;;;4979704;28;20037;-88
2022/08/13 05:27:14;;;;;;;3.42;2.58;;;21.80;59.50;;;;;;4979402;28;20084;-90
2022/08/13 05:29:43;;;;;;;4.18;2.35;;;21.80;59.60;;;;;;4979018;28;20030;-89
2022/08/13 05:32:10;;;;;;;2.33;2.00;;;21.90;59.70;;;;;;4991607;28;20030;-88
2022/08/13 05:34:41;;;;;;;4.60;2.10;;;21.90;59.50;;;;;;4998178;28;20602;-89
2022/08/13 05:37:16;;;;;;;;;;;21.90;59.30;;;;;;4999742;28;20026;-88
2022/08/13 05:39:46;;;;;;;4.43;1.70;;;21.90;59.30;;;;;;4998856;28;19922;-89
2022/08/13 05:42:18;;;;;;;4.10;1.85;;;22.00;59.30;;;;;;4985486;28;20026;-89
2022/08/13 05:44:55;;;;;;;3.65;2.30;;;22.00;59.40;;;;;;4979206;28;20026;-88
2022/08/13 05:47:23;;;;;;;2.13;1.63;;;22.10;59.30;;;;;;4979164;28;20018;-89
2022/08/13 05:49:49;;;;;;;4.82;1.83;;;22.10;59.30;;;;;;4978765;28;20085;-89
2022/08/13 05:52:14;;;;;;;3.60;1.75;;;22.00;59.30;;;;;;4997364;28;20023;-89
2022/08/13 05:54:45;;;;;;;2.67;1.75;;;22.10;59.40;;;;;;4979208;28;20091;-89
2022/08/13 06:05:46;;;;;;;3.35;1.48;;;22.20;59.40;;;;;;5017013;28;20061;-88
2022/08/13 06:08:19;;;;;;;2.97;1.80;;;22.20;59.50;;;;;;4998469;28;20483;-89
2022/08/13 06:10:50;;;;;;;3.38;1.58;;;22.30;59.50;;;;;;5016407;28;20064;-88
2022/08/13 06:13:24;;;;;;;2.05;1.52;;;22.30;59.40;;;;;;4989667;28;20084;-90
2022/08/13 06:16:08;;;;;;;;;;;;;;;;;;;;;
2022/08/13 06:18:59;;;;;;;3.85;1.50;;;22.40;59.40;;;;;;4995884;28;20030;-88
2022/08/13 06:21:35;;;;;;;;;;;22.40;59.30;;;;;;4964464;28;20506;-89
2022/08/13 06:24:08;;;;;;;2.17;1.60;;;22.40;59.30;;;;;;4978771;28;19914;-88
2022/08/13 06:26:34;;;;;;;3.30;1.70;;;22.30;59.30;;;;;;4977828;28;20061;-88
2022/08/13 06:29:05;;;;;;;5.30;1.45;;;22.30;59.30;;;;;;4978992;28;20034;-89
2022/08/13 06:31:38;;;;;;;2.70;1.40;;;22.30;59.30;;;;;;4992736;28;20091;-91
2022/08/13 06:34:10;;;;;;;3.40;1.70;;;22.30;59.30;;;;;;4998302;28;20099;-88
2022/08/13 06:36:53;;;;;;;;;;;;;;;;;;;;;
2022/08/13 06:39:23;;;;;;;2.25;1.23;;;22.40;59.30;;;;;;5000714;28;20386;-90
2022/08/13 06:51:58;;;;;;;2.53;1.45;;;22.60;59.40;;;;;;4935583;29;20063;-89
2022/08/13 06:54:27;;;;;;;2.20;1.23;;;22.70;59.30;;;;;;4919981;29;20510;-91
2022/08/13 06:56:58;;;;;;;2.63;0.93;;;22.70;59.20;;;;;;4980186;28;20061;-90
2022/08/13 06:59:25;;;;;;;2.08;1.30;;;22.80;59.30;;;;;;4997796;28;20025;-89
2022/08/13 07:02:00;;;;;;;3.22;1.50;;;22.90;59.40;;;;;;4996949;28;20038;-89
2022/08/13 07:04:29;;;;;;;3.58;1.08;;;23.00;59.50;;;;;;5015634;28;20033;-88
2022/08/13 07:06:58;;;;;;;2.15;1.25;;;23.00;59.40;;;;;;5015705;28;20022;-88
2022/08/13 07:09:24;;;;;;;2.72;1.30;;;23.10;59.30;;;;;;4998657;28;20383;-89
2022/08/13 07:11:54;;;;;;;1.48;1.20;;;23.10;59.40;;;;;;4998773;28;20026;-89
2022/08/13 07:14:23;;;;;;;2.95;1.25;;;23.20;59.50;;;;;;5019546;28;20058;-88
2022/08/13 07:16:51;;;;;;;1.80;1.40;;;23.30;59.50;;;;;;5038452;28;20034;-87
2022/08/13 07:19:22;;;;;;;4.50;1.70;;;23.30;59.40;;;;;;5021799;28;20022;-88
2022/08/13 07:21:48;;;;;;;2.03;1.00;;;23.40;59.30;;;;;;5005853;28;20037;-89
2022/08/13 07:24:14;;;;;;;1.33;1.02;;;23.50;59.30;;;;;;5020648;28;20090;-89
2022/08/13 07:26:42;;;;;;;1.77;1.30;;;23.60;59.30;;;;;;5006829;28;20026;-90
2022/08/13 07:29:15;;;;;;;2.92;1.20;;;23.70;59.30;;;;;;4997551;28;20036;-90
2022/08/13 07:31:43;;;;;;;1.75;1.35;;;23.70;59.00;;;;;;4997708;28;20437;-89
2022/08/13 07:34:09;;;;;;;2.28;1.55;;;23.80;58.80;;;;;;4981610;28;20121;-87
2022/08/13 07:36:38;;;;;;;2.38;1.35;;;23.80;58.70;;;;;;4997046;28;20109;-89
2022/08/13 07:39:16;;;;;;;2.03;1.52;;;23.90;58.70;;;;;;4997098;28;20520;-89
2022/08/13 07:41:46;;;;;;;3.25;1.38;;;23.90;58.60;;;;;;4996917;28;20022;-88
2022/08/13 07:44:22;;;;;;;1.38;1.27;;;23.90;58.70;;;;;;4996586;28;20022;-89
2022/08/13 07:46:50;;;;;;;1.63;1.30;;;24.00;58.80;;;;;;4996935;28;20026;-89
2022/08/13 07:49:18;;;;;;;2.03;1.30;;;24.10;58.70;;;;;;4996842;28;20026;-90
2022/08/13 07:51:48;;;;;;;1.58;1.33;;;24.20;58.70;;;;;;4997065;28;20034;-89
2022/08/13 07:54:15;;;;;;;2.67;1.35;;;24.30;58.70;;;;;;4996557;28;20022;-88
2022/08/13 07:56:49;;;;;;;1.83;1.30;;;24.40;58.70;;;;;;4993331;28;20047;-88
2022/08/13 07:59:18;;;;;;;1.52;1.23;;;24.40;58.50;;;;;;4977862;28;20088;-89
2022/08/13 08:01:47;;;;;;;1.52;1.23;;;24.50;58.50;;;;;;4977951;28;20021;-89
2022/08/13 08:04:15;;;;;;;2.05;1.20;;;24.50;58.50;;;;;;4995325;28;20018;-90
2022/08/13 08:06:53;;;;;;;3.38;1.30;;;24.60;58.50;;;;;;4977781;28;20026;-90
2022/08/13 08:09:24;;;;;;;2.15;1.10;;;24.70;58.40;;;;;;4977164;28;20032;-91
2022/08/13 08:14:38;;;;;;;2.67;1.10;;;24.90;58.20;;;;;;4995964;28;20069;-90
2022/08/13 08:17:08;;;;;;;1.27;1.17;;;25.00;57.60;;;;;;4964219;28;20085;-89
2022/08/13 08:19:33;;;;;;;1.85;1.20;;;25.10;57.60;;;;;;4980429;28;20149;-88
2022/08/13 08:21:59;;;;;;;1.30;1.20;;;25.10;57.50;;;;;;4980597;28;20109;-89
2022/08/13 08:24:28;;;;;;;1.35;1.20;;;25.20;57.50;;;;;;4980926;28;20019;-89
2022/08/13 08:27:05;;;;;;;2.83;1.50;;;25.30;57.00;;;;;;4997746;28;20034;-89
2022/08/13 08:29:33;;;;;;;1.25;1.15;;;25.40;56.70;;;;;;4980167;28;20022;-89
2022/08/13 08:32:08;;;;;;;2.63;1.50;;;25.50;56.10;;;;;;4980285;28;20438;-88
2022/08/13 08:34:39;;;;;;;3.25;1.25;;;25.50;56.10;;;;;;4980057;28;20038;-88
2022/08/13 08:42:35;;;;;;;2.38;1.30;;;25.70;56.10;;;;;;4979748;28;20018;-88
2022/08/13 08:42:56;;;;;;;2.35;1.20;;;25.80;55.60;;;;;;4997755;28;20188;-89
2022/08/13 08:45:25;;;;;;;3.08;1.10;;;25.90;55.30;;;;;;4980379;28;20089;-89
2022/08/13 08:47:53;;;;;;;1.58;1.10;;;25.90;55.20;;;;;;4979915;28;20018;-89
2022/08/13 08:50:22;;;;;;;1.33;1.08;;;26.00;54.80;;;;;;4980142;28;20022;-88
2022/08/13 08:55:38;;;;;;;1.92;1.00;;;26.20;54.90;;;;;;4998258;28;20056;-88
2022/08/13 08:58:08;;;;;;;2.33;0.98;;;26.30;55.60;;;;;;4980563;28;20117;-88
2022/08/13 09:00:37;;;;;;;3.17;1.33;;;26.30;54.50;;;;;;4981053;28;20062;-90
2022/08/13 09:03:07;;;;;;;1.13;1.02;;;26.40;54.70;;;;;;5008541;28;20014;-89
2022/08/13 09:05:39;;;;;;;3.13;1.20;;;26.50;55.00;;;;;;4993724;28;20141;-89
2022/08/13 09:08:08;;;;;;;4.63;1.40;;;26.50;54.70;;;;;;4997481;28;20022;-89
2022/08/13 09:10:35;;;;;;;3.72;1.30;;;26.60;54.30;;;;;;4996772;28;20045;-91
2022/08/13 09:13:02;;;;;;;2.20;1.10;;;26.60;53.80;;;;;;4977356;28;20033;-88
2022/08/13 09:15:39;;;;;;;1.10;1.00;;;26.70;54.00;;;;;;4981596;28;20027;-88
2022/08/13 09:18:16;;;;;;;2.42;1.10;;;26.70;54.20;;;;;;4997585;28;20026;-89
2022/08/13 09:20:45;;;;;;;3.20;1.20;;;26.80;54.20;;;;;;4979944;28;20030;-89
2022/08/13 09:23:18;;;;;;;3.45;1.55;;;26.90;54.20;;;;;;4980767;28;20157;-90
2022/08/13 09:25:51;;;;;;;1.70;1.20;;;26.90;54.30;;;;;;4984328;28;20026;-89
2022/08/13 09:28:24;;;;;;;2.85;1.08;;;27.00;54.10;;;;;;5003564;28;20025;-88
2022/08/13 09:30:54;;;;;;;2.22;1.20;;;27.10;53.80;;;;;;5020287;28;20014;-88
2022/08/13 09:33:25;;;;;;;3.35;1.40;;;27.10;53.60;;;;;;5003289;28;20024;-89
2022/08/13 09:35:51;;;;;;;;;;;27.10;53.50;;;;;;5003669;28;20006;-88
2022/08/13 09:38:25;;;;;;;3.90;1.40;;;27.20;53.60;;;;;;5003102;28;19914;-88
2022/08/13 09:40:59;;;;;;;1.77;1.20;;;27.30;53.30;;;;;;5007746;28;20030;-87
2022/08/13 09:43:36;;;;;;;2.53;1.42;;;27.30;53.30;;;;;;4979423;28;20022;-88
2022/08/13 09:46:06;;;;;;;1.55;1.10;;;27.40;53.20;;;;;;4979047;28;20022;-90
2022/08/13 09:48:31;;;;;;;1.70;1.10;;;27.50;53.30;;;;;;4963333;28;20027;-88
2022/08/13 09:51:49;;;;;;;2.70;1.00;;;27.50;53.40;;;;;;4978415;28;20030;-89
2022/08/13 09:54:17;;;;;;;1.58;1.10;;;27.60;53.00;;;;;;4978732;28;20026;-89
2022/08/13 09:56:45;;;;;;;1.55;0.90;;;27.70;52.90;;;;;;4996341;28;20050;-88
2022/08/13 09:59:11;;;;;;;2.55;1.02;;;27.70;52.10;;;;;;4978595;28;20022;-89
2022/08/13 10:01:40;;;;;;;2.83;1.23;;;27.80;52.00;;;;;;4978497;28;20025;-89
2022/08/13 10:04:12;;;;;;;1.40;1.02;;;27.90;52.10;;;;;;4978908;28;20022;-88
2022/08/13 10:06:38;;;;;;;1.38;1.02;;;28.00;52.30;;;;;;4979001;28;20101;-89
2022/08/13 10:09:06;;;;;;;2.20;1.00;;;28.10;52.40;;;;;;4978440;28;20077;-89
2022/08/13 10:11:42;;;;;;;1.20;1.05;;;28.10;52.40;;;;;;4978250;28;20034;-90
2022/08/13 10:14:08;;;;;;;1.45;1.02;;;28.20;52.30;;;;;;4955034;28;20023;-90
2022/08/13 10:16:36;;;;;;;1.23;1.08;;;28.20;52.20;;;;;;4995664;28;20030;-89
2022/08/13 10:19:10;;;;;;;1.88;1.35;;;28.30;52.10;;;;;;4978514;28;20066;-90
2022/08/13 10:21:35;;;;;;;1.65;1.00;;;28.40;51.30;;;;;;4962410;28;20023;-91
2022/08/13 10:24:02;;;;;;;2.35;1.15;;;28.40;51.90;;;;;;4977851;28;20335;-91
2022/08/13 10:26:27;;;;;;;1.98;1.30;;;28.40;51.40;;;;;;4961998;28;20030;-88
2022/08/13 10:28:55;;;;;;;1.83;1.10;;;28.50;51.20;;;;;;4977935;28;20027;-89
2022/08/13 10:31:27;;;;;;;1.35;1.20;;;28.50;51.00;;;;;;4977915;28;20015;-88
2022/08/13 10:33:59;;;;;;;2.08;1.10;;;28.60;51.10;;;;;;4977583;28;20192;-89
2022/08/13 10:36:31;;;;;;;1.15;1.00;;;28.60;50.90;;;;;;4977439;28;20487;-89
2022/08/13 10:38:57;;;;;;;1.25;1.00;;;28.70;51.10;;;;;;4977618;28;20112;-90
2022/08/13 10:41:25;;;;;;;1.05;0.95;;;28.70;51.20;;;;;;4978015;28;20077;-89
2022/08/13 10:43:59;;;;;;;1.65;0.98;;;28.80;51.30;;;;;;4961542;28;20482;-89
2022/08/13 10:46:31;;;;;;;1.95;0.93;;;28.80;50.70;;;;;;4977744;28;20068;-89
2022/08/13 10:48:58;;;;;;;1.73;1.17;;;28.90;49.90;;;;;;4977423;28;20025;-89
2022/08/13 10:51:33;;;;;;;2.53;1.10;;;28.90;50.10;;;;;;4977377;28;20038;-89
2022/08/13 10:54:01;;;;;;;1.50;1.15;;;29.00;50.20;;;;;;4994997;28;20531;-88
2022/08/13 10:56:30;;;;;;;1.02;0.93;;;29.10;50.20;;;;;;4977638;28;20058;-90
2022/08/13 10:59:01;;;;;;;2.15;1.25;;;29.10;50.30;;;;;;4977857;28;20098;-88
2022/08/13 11:01:39;;;;;;;;;;;;;;;;;;;;;
2022/08/13 11:04:11;;;;;;;1.85;1.10;;;29.20;48.10;;;;;;4995267;28;20015;-89
2022/08/13 11:06:37;;;;;;;1.10;1.00;;;29.20;48.60;;;;;;4977480;28;20028;-88
2022/08/13 11:09:07;;;;;;;1.02;0.90;;;29.30;49.00;;;;;;4977493;28;20487;-89
2022/08/13 11:11:38;;;;;;;1.17;1.08;;;29.40;48.10;;;;;;4977678;28;20191;-90
2022/08/13 11:14:09;;;;;;;1.40;1.00;;;29.40;47.80;;;;;;4977657;28;20034;-90
2022/08/13 11:16:56;;;;;;;1.38;0.93;;;29.40;46.90;;;;;;4994437;28;20030;-88
2022/08/13 11:19:26;;;;;;;1.60;0.80;;;29.40;47.10;;;;;;4994317;28;20034;-87
2022/08/13 11:21:54;;;;;;;0.88;0.82;;;29.50;47.60;;;;;;4994416;28;20022;-87
2022/08/13 11:24:38;;;;;;;1.20;1.10;;;29.50;47.70;;;;;;4977278;28;20026;-88
2022/08/13 11:27:09;;;;;;;2.30;0.82;;;29.50;47.60;;;;;;4964899;28;20065;-89
2022/08/13 11:29:43;;;;;;;0.98;0.90;;;29.60;47.60;;;;;;4962307;28;20038;-89
2022/08/13 11:32:14;;;;;;;1.15;0.90;;;29.60;45.70;;;;;;4977959;28;20026;-90
2022/08/13 11:34:55;;;;;;;;;;;;;;;;;;;;;
2022/08/13 11:37:21;;;;;;;0.73;0.73;;;29.70;45.50;;;;;;4996287;28;20057;-90
2022/08/13 11:39:55;;;;;;;1.10;1.00;;;29.80;45.90;;;;;;4977661;28;20551;-89
2022/08/13 11:42:21;;;;;;;1.15;0.70;;;29.80;46.00;;;;;;4978264;28;20435;-89
2022/08/13 11:44:56;;;;;;;;;;;;;;;;;;;;;
2022/08/13 11:47:25;;;;;;;0.70;0.60;;;29.90;46.00;;;;;;5017596;28;20011;-89
2022/08/13 11:50:16;;;;;;;0.60;0.60;;;29.90;45.80;;;;;;5005115;28;20091;-89
2022/08/13 11:52:44;;;;;;;0.80;0.80;;;29.90;45.50;;;;;;4978632;28;20026;-90
2022/08/13 11:55:40;;;;;;;0.70;0.70;;;29.90;45.40;;;;;;4988842;28;20054;-91
2022/08/13 11:58:10;;;;;;;2.72;0.82;;;30.00;45.90;;;;;;5005149;28;20018;-90
2022/08/13 12:00:52;;;;;;;;;;;;;;;;;;;;;
2022/08/13 12:03:40;;;;;;;0.82;0.82;;;30.00;45.60;;;;;;4998713;28;20033;-89
2022/08/13 12:06:24;;;;;;;1.38;0.85;;;30.10;46.10;;;;;;4965333;28;20073;-90
2022/08/13 12:09:02;;;;;;;;;;;;;;;;;;;;;
2022/08/13 12:11:33;;;;;;;1.17;0.70;;;30.10;46.10;;;;;;4998369;28;20376;-89
2022/08/13 12:13:59;;;;;;;0.93;0.80;;;30.10;46.40;;;;;;4981189;28;20018;-89
2022/08/13 12:16:24;;;;;;;1.92;0.80;;;30.10;46.70;;;;;;4981265;28;20086;-90
2022/08/13 12:19:03;;;;;;;;;;;;;;;;;;;;;
2022/08/13 12:22:02;;;;;;;;;;;;;;;;;;;;;
2022/08/13 12:31:24;;;;;;;;;;;;;;;;;;;;;
2022/08/13 12:34:00;;;;;;;1.17;0.70;;;30.40;46.50;;;;;;4997942;28;20033;-90
2022/08/13 12:36:48;;;;;;;1.98;0.90;;;30.50;46.50;;;;;;4965245;28;20487;-91
2022/08/13 12:39:14;;;;;;;2.10;0.82;;;30.50;46.10;;;;;;4983523;28;20039;-91
2022/08/13 12:42:03;;;;;;;0.70;0.70;;;30.50;45.90;;;;;;4980546;28;20518;-92
2022/08/13 12:44:31;;;;;;;1.25;0.63;;;30.50;44.20;;;;;;4966958;28;20041;-90
2022/08/13 12:46:57;;;;;;;0.63;0.63;;;30.60;44.50;;;;;;4978949;28;20038;-90
2022/08/13 12:49:28;;;;;;;1.33;0.82;;;30.60;44.60;;;;;;4980547;28;20018;-90
2022/08/13 12:52:09;;;;;;;;;;;;;;;;;;;;;
2022/08/13 12:55:16;;;;;;;0.77;0.63;;;30.60;43.90;;;;;;4997515;28;20036;-90
2022/08/13 12:57:44;;;;;;;0.90;0.73;;;30.60;44.30;;;;;;4980103;28;20049;-91
2022/08/13 13:00:33;;;;;;;1.15;0.70;;;30.70;45.00;;;;;;4962800;28;20042;-90
2022/08/13 13:03:10;;;;;;;0.70;0.70;;;30.70;45.00;;;;;;4964826;28;20031;-90
2022/08/13 13:05:46;;;;;;;;;;;;;;;;;;;;;
2022/08/13 13:08:41;;;;;;;3.97;0.88;;;30.80;44.40;;;;;;4997102;28;20023;-88
2022/08/13 13:11:39;;;;;;;;;;;;;;;;;;;;;
2022/08/13 13:14:25;;;;;;;;;;;;;;;;;;;;;
2022/08/13 13:17:40;;;;;;;0.88;0.80;;;31.00;45.40;;;;;;4998939;28;20045;-90
2022/08/13 13:20:24;;;;;;;1.00;0.88;;;31.00;45.20;;;;;;5009089;28;20033;-92
2022/08/13 13:23:13;;;;;;;0.80;0.80;;;31.00;45.30;;;;;;4994228;28;20022;-91
2022/08/13 13:29:28;;;;;;;;;;;;;;;;;;;;;
2022/08/13 13:32:09;;;;;;;1.08;0.98;;;31.10;44.70;;;;;;4981819;28;20030;-91
2022/08/13 13:34:56;;;;;;;;;;;;;;;;;;;;;
2022/08/13 13:38:28;;;;;;;6.82;1.10;;;31.10;45.10;;;;;;4998661;28;20117;-90
2022/08/13 13:40:48;;;;;;;2.35;0.80;;;31.20;45.30;;;;;;4986310;28;20093;-90
2022/08/13 13:44:07;;;;;;;;;;;;;;;;;;;;;
2022/08/13 13:46:36;;;;;;;2.70;1.10;;;31.10;44.70;;;;;;4997761;28;20539;-91
2022/08/13 13:49:04;;;;;;;2.63;0.98;;;31.20;44.10;;;;;;4979418;28;20027;-92
2022/08/13 13:54:49;;;;;;;1.58;0.65;;;31.20;44.20;;;;;;4992995;28;20035;-90
2022/08/13 13:57:33;;;;;;;;;;;;;;;;;;;;;
2022/08/13 14:00:08;;;;;;;2.13;0.82;;;31.20;43.50;;;;;;4998052;28;20034;-89
2022/08/13 14:03:23;;;;;;;1.35;0.80;;;31.30;43.70;;;;;;4994383;28;20014;-89
2022/08/13 14:06:17;;;;;;;1.33;0.70;;;31.20;43.50;;;;;;4982111;28;20037;-89
2022/08/13 14:09:04;;;;;;;;;;;;;;;;;;;;;
2022/08/13 14:11:35;;;;;;;1.80;0.80;;;31.30;43.50;;;;;;5019500;28;20006;-89
2022/08/13 14:14:03;;;;;;;1.38;0.80;;;31.30;41.70;;;;;;5002899;28;20018;-88
2022/08/13 14:16:51;;;;;;;4.00;0.98;;;31.30;42.10;;;;;;4986385;28;20022;-90
2022/08/13 14:22:32;;;;;;;0.70;0.70;;;31.30;41.90;;;;;;4992785;28;20375;-89
2022/08/13 14:25:34;;;;;;;;;;;;;;;;;;;;;
2022/08/13 14:28:11;;;;;;;;;;;;;;;;;;;;;
2022/08/13 14:31:11;;;;;;;;;;;;;;;;;;;;;
2022/08/13 14:33:39;;;;;;;;;;;31.40;42.80;;;;;;4996257;28;20475;-88
2022/08/13 14:36:31;;;;;;;1.10;0.75;;;31.40;43.10;;;;;;4982228;28;19941;-88
2022/08/13 14:39:06;;;;;;;0.85;0.80;;;31.40;43.30;;;;;;4965439;28;20053;-89
2022/08/13 14:49:06;;;;;;;;;;;;;;;;;;;;;
2022/08/13 15:02:50;;;;;;;;;;;;;;;;;;;;;
2022/08/13 15:06:10;;;;;;;;;;;;;;;;;;;;;
2022/08/13 15:08:57;;;;;;;;;;;31.50;42.50;;;;;;4976405;28;20027;-91
2022/08/13 15:15:05;;;;;;;;;;;;;;;;;;;;;
2022/08/13 15:25:39;;;;;;;;;;;;;;;;;;;;;
2022/08/13 15:45:10;;;;;;;2.03;0.90;;;31.60;42.60;;;;;;4921650;28;20042;-90
2022/08/13 15:47:50;;;;;;;;;;;;;;;;;;;;;
2022/08/13 15:50:37;;;;;;;;;;;;;;;;;;;;;
2022/08/13 15:54:07;;;;;;;1.42;1.05;;;31.70;42.70;;;;;;4979545;28;20030;-90
2022/08/13 15:57:37;;;;;;;1.10;1.00;;;31.70;42.70;;;;;;4962392;28;20046;-89
2022/08/13 16:00:42;;;;;;;0.90;0.90;;;31.80;43.10;;;;;;4984433;28;20161;-92
2022/08/13 16:03:31;;;;;;;1.20;1.10;;;31.80;43.10;;;;;;4966701;28;20097;-92
2022/08/13 16:06:07;;;;;;;;;;;;;;;;;;;;;
2022/08/13 16:08:54;;;;;;;2.00;1.00;;;31.80;43.00;;;;;;4998280;28;20023;-90
2022/08/13 16:11:37;;;;;;;2.70;1.00;;;31.80;43.00;;;;;;4981206;28;20146;-91
2022/08/13 16:14:07;;;;;;;2.40;1.10;;;31.80;43.40;;;;;;4965846;28;20038;-91
2022/08/13 16:16:46;;;;;;;;;;;;;;;;;;;;;
2022/08/13 16:19:38;;;;;;;2.10;1.30;;;31.80;43.30;;;;;;4998359;28;19909;-90